Time;durP1;ratioP1;P1;durP2;ratioP2;P2;SDS_P1;SDS_P2;PMS_P1;PMS_P2;Temp;Humidity;BMP_temperature;BMP_pressure;BME280_temperature;BME280_humidity;BME280_pressure;Samples;Min_cycle;Max_cycle;Signal;HPM_P1;HPM_P2
2022/10/24 00:02:10;;;;;;;8.38;2.55;;;;;;;14.53;96.94;100321.25;5054417;28;20055;-51
2022/10/24 00:04:37;;;;;;;7.47;2.47;;;;;;;14.54;96.71;100328.31;5046141;28;20474;-51
2022/10/24 00:07:04;;;;;;;6.18;2.60;;;;;;;14.53;96.17;100321.25;5054247;28;20107;-51
2022/10/24 00:09:29;;;;;;;9.10;2.40;;;;;;;14.52;96.08;100322.25;5053455;28;20033;-50
2022/10/24 00:11:55;;;;;;;10.82;2.67;;;;;;;14.51;95.51;100308.06;5054147;28;20025;-50
2022/10/24 00:14:20;;;;;;;15.27;3.75;;;;;;;14.49;95.90;100306.53;5053822;28;20017;-50
2022/10/24 00:16:45;;;;;;;13.82;2.75;;;;;;;14.48;95.69;100315.56;5045953;28;20021;-51
2022/10/24 00:19:10;;;;;;;7.10;2.60;;;;;;;14.46;95.47;100313.03;5050978;28;20471;-51
2022/10/24 00:21:36;;;;;;;10.50;2.83;;;;;;;14.41;95.12;100310.81;5057780;28;20494;-50
2022/10/24 00:24:01;;;;;;;9.88;2.50;;;;;;;14.40;95.32;100319.81;5062599;28;20113;-50
2022/10/24 00:26:27;;;;;;;6.22;2.30;;;;;;;14.38;94.73;100316.47;5054850;28;20385;-50
2022/10/24 00:28:52;;;;;;;7.57;2.33;;;;;;;14.35;94.87;100314.09;5058087;28;20313;-52
2022/10/24 00:31:18;;;;;;;9.05;2.70;;;;;;;14.34;95.11;100308.91;5061669;28;20064;-52
2022/10/24 00:33:44;;;;;;;9.07;2.70;;;;;;;14.35;94.41;100311.44;5058249;28;20535;-50
2022/10/24 00:36:13;;;;;;;9.57;2.70;;;;;;;14.35;94.23;100310.59;5068806;28;20095;-50
2022/10/24 00:38:38;;;;;;;6.60;2.60;;;;;;;14.36;93.66;100309.63;5065589;28;20029;-51
2022/10/24 00:41:04;;;;;;;8.00;2.67;;;;;;;14.37;93.14;100305.94;5069183;28;20024;-50
2022/10/24 00:43:29;;;;;;;5.35;2.13;;;;;;;14.41;92.48;100304.66;5061355;28;20028;-50
2022/10/24 00:45:59;;;;;;;9.98;2.78;;;;;;;14.36;93.29;100306.94;5065837;28;20099;-50
2022/10/24 00:51:00;;;;;;;7.47;2.35;;;;;;;14.33;92.74;100291.22;5111104;28;20445;-85
2022/10/24 00:53:26;;;;;;;8.73;2.30;;;;;;;14.32;92.56;100295.75;5114719;28;20036;-85
2022/10/24 00:55:56;;;;;;;5.07;2.10;;;;;;;14.29;92.48;100295.19;5110217;28;20024;-85
2022/10/24 00:58:25;;;;;;;10.48;3.10;;;;;;;14.24;92.20;100280.47;5097069;28;20040;-85
2022/10/24 01:00:50;;;;;;;9.07;2.97;;;;;;;14.24;92.80;100288.50;5114918;28;20032;-85
2022/10/24 01:03:16;;;;;;;7.95;2.63;;;;;;;14.25;91.87;100292.84;5115268;28;20043;-85
2022/10/24 01:06:12;;;;;;;11.55;2.97;;;;;;;14.27;92.77;100294.50;5118855;28;20529;-85
2022/10/24 01:08:48;;;;;;;6.03;2.30;;;;;;;14.24;92.09;100296.50;5109020;28;20027;-85
2022/10/24 01:11:33;;;;;;;6.80;2.40;;;;;;;14.16;91.73;100274.25;5121666;28;20023;-85
2022/10/24 01:14:14;;;;;;;6.35;2.45;;;;;;;14.25;91.59;100292.00;5120942;28;20062;-85
2022/10/24 01:17:27;;;;;;;6.07;2.70;;;;;;;14.29;91.56;100293.38;5123887;28;20032;-84
2022/10/24 01:20:14;;;;;;;6.43;2.70;;;;;;;14.20;91.65;100281.78;5016773;28;20010;-85
2022/10/24 01:23:05;;;;;;;8.02;2.78;;;;;;;14.27;90.66;100281.16;5109200;28;20036;-84
2022/10/24 01:25:42;;;;;;;8.68;2.72;;;;;;;14.29;90.42;100281.84;5112469;28;20035;-84
2022/10/24 01:28:14;;;;;;;8.85;2.80;;;;;;;14.27;90.00;100281.16;5113904;28;20027;-84
2022/10/24 01:30:44;;;;;;;6.82;2.10;;;;;;;14.26;89.57;100280.31;5113305;28;20047;-84
2022/10/24 01:33:35;;;;;;;9.57;2.83;;;;;;;14.24;90.23;100276.97;5106731;28;20445;-84
2022/10/24 01:36:15;;;;;;;7.60;2.33;;;;;;;14.23;89.60;100283.31;5120554;28;20047;-84
2022/10/24 01:38:46;;;;;;;8.40;2.60;;;;;;;14.24;89.50;100283.16;5113035;28;20011;-85
2022/10/24 01:41:16;;;;;;;8.15;2.33;;;;;;;14.22;89.20;100274.47;5116854;28;20031;-85
2022/10/24 01:43:54;;;;;;;9.80;2.80;;;;;;;14.19;89.33;100274.78;5094772;28;20023;-85
2022/10/24 01:46:24;;;;;;;8.90;2.42;;;;;;;14.19;89.11;100265.94;5113858;28;20059;-85
2022/10/24 01:49:15;;;;;;;6.72;2.20;;;;;;;14.22;88.77;100282.47;5118659;28;20553;-84
2022/10/24 01:51:42;;;;;;;5.40;1.88;;;;;;;14.18;88.55;100264.25;5122481;28;20051;-84
2022/10/24 01:54:08;;;;;;;6.28;2.20;;;;;;;14.18;88.22;100257.06;5129639;28;20040;-84
2022/10/24 01:56:34;;;;;;;5.80;2.20;;;;;;;14.16;88.15;100251.03;5129117;28;20042;-84
2022/10/24 01:59:28;;;;;;;7.38;2.42;;;;;;;14.17;87.50;100255.41;5107540;28;20024;-84
2022/10/24 02:02:14;;;;;;;5.72;2.47;;;;;;;14.18;88.47;100250.88;5128061;28;20024;-84
2022/10/24 02:04:54;;;;;;;8.18;2.20;;;;;;;14.15;87.82;100254.69;5123339;28;20028;-84
2022/10/24 02:07:21;;;;;;;6.55;2.33;;;;;;;14.19;86.67;100260.59;5122751;28;20061;-84
2022/10/24 02:09:51;;;;;;;5.35;2.17;;;;;;;14.17;86.78;100267.88;5124049;27;20027;-84
2022/10/24 02:12:21;;;;;;;5.95;1.98;;;;;;;14.15;86.84;100268.03;5116213;28;20103;-85
2022/10/24 02:15:03;;;;;;;8.00;2.35;;;;;;;14.06;86.24;100245.78;5130117;28;20027;-84
2022/10/24 02:17:29;;;;;;;6.30;1.70;;;;;;;14.17;86.34;100250.06;5131087;28;20051;-84
2022/10/24 02:19:55;;;;;;;4.55;2.13;;;;;;;14.18;85.76;100254.38;5121773;28;20034;-84
2022/10/24 02:22:23;;;;;;;5.13;2.20;;;;;;;14.20;85.88;100257.72;5116621;28;20035;-84
2022/10/24 02:25:14;;;;;;;9.57;2.70;;;;;;;14.21;85.86;100259.41;5127345;28;20053;-84
2022/10/24 02:27:54;;;;;;;6.35;1.90;;;;;;;14.19;85.42;100253.41;5117259;28;20019;-84
2022/10/24 02:30:22;;;;;;;6.97;2.10;;;;;;;14.19;84.93;100250.72;5126652;28;20016;-84
2022/10/24 02:33:00;;;;;;;4.82;1.60;;;;;;;14.22;84.95;100254.91;5126482;28;20062;-84
2022/10/24 02:35:29;;;;;;;9.05;2.10;;;;;;;14.20;84.48;100246.22;5118230;28;20024;-85
2022/10/24 02:38:14;;;;;;;6.68;1.80;;;;;;;14.18;84.66;100249.03;5121984;28;20061;-85
2022/10/24 02:40:42;;;;;;;6.13;2.13;;;;;;;14.20;84.42;100256.91;5126270;28;20027;-84
2022/10/24 02:43:09;;;;;;;7.65;2.30;;;;;;;14.21;83.95;100259.41;5131607;28;20028;-84
2022/10/24 02:45:36;;;;;;;7.90;1.88;;;;;;;14.20;83.90;100256.91;5126590;28;20043;-85
2022/10/24 02:48:05;;;;;;;8.93;2.40;;;;;;;14.23;83.29;100259.25;5119045;28;20032;-85
2022/10/24 02:50:31;;;;;;;;;;;;;;;14.27;85.02;100260.63;5114722;28;20082;-85
2022/10/24 02:52:56;;;;;;;7.53;1.85;;;;;;;14.29;82.01;100260.47;5133438;27;20294;-84
2022/10/24 02:55:22;;;;;;;9.15;1.85;;;;;;;14.35;82.34;100259.84;5135446;28;20028;-84
2022/10/24 02:57:48;;;;;;;5.95;1.90;;;;;;;14.37;82.14;100260.53;5117351;27;20088;-85
2022/10/24 03:00:17;;;;;;;4.07;1.80;;;;;;;14.41;82.18;100259.22;5137061;28;20019;-84
2022/10/24 03:02:43;;;;;;;7.78;1.98;;;;;;;14.43;81.63;100270.59;5105199;28;20073;-85
2022/10/24 03:05:08;;;;;;;7.63;1.80;;;;;;;14.46;81.40;100256.09;5117978;28;20036;-84
2022/10/24 03:07:33;;;;;;;5.75;1.80;;;;;;;14.43;81.54;100255.38;5117100;28;20028;-84
2022/10/24 03:09:59;;;;;;;4.78;2.20;;;;;;;14.42;81.61;100267.09;5123696;28;20053;-84
2022/10/24 03:12:25;;;;;;;4.10;1.63;;;;;;;14.39;81.90;100269.25;5125128;28;20061;-84
2022/10/24 03:14:50;;;;;;;7.80;2.00;;;;;;;14.40;82.02;100268.22;5102535;28;20123;-84
2022/10/24 03:17:16;;;;;;;8.82;2.03;;;;;;;14.31;81.65;100253.97;5131577;28;20024;-84
2022/10/24 03:19:41;;;;;;;4.38;1.75;;;;;;;14.38;81.90;100259.53;5126533;28;20020;-84
2022/10/24 03:22:06;;;;;;;5.72;2.20;;;;;;;14.35;81.58;100262.53;5133781;28;20027;-84
2022/10/24 03:24:32;;;;;;;6.95;2.13;;;;;;;14.33;81.84;100259.16;5125354;28;20020;-84
2022/10/24 03:26:57;;;;;;;7.63;1.90;;;;;;;14.33;81.46;100257.31;5135951;28;20036;-85
2022/10/24 03:29:23;;;;;;;7.87;1.90;;;;;;;14.32;82.05;100262.81;5133976;27;20070;-84
2022/10/24 03:31:48;;;;;;;7.85;1.70;;;;;;;14.25;82.29;100255.47;5123742;28;20293;-84
2022/10/24 03:34:13;;;;;;;13.85;2.35;;;;;;;14.27;82.28;100255.28;5131025;28;20145;-84
2022/10/24 03:36:39;;;;;;;6.30;1.77;;;;;;;14.24;82.39;100259.13;5136622;28;20028;-84
2022/10/24 03:39:04;;;;;;;6.68;1.90;;;;;;;14.21;82.88;100243.41;5124950;28;20470;-84
2022/10/24 03:41:29;;;;;;;5.53;2.33;;;;;;;14.23;82.90;100245.91;5124842;28;20036;-84
2022/10/24 03:43:55;;;;;;;6.22;2.17;;;;;;;14.23;82.37;100254.75;5128777;28;20368;-84
2022/10/24 03:46:20;;;;;;;8.63;2.28;;;;;;;14.25;82.60;100244.78;5134652;28;20035;-84
2022/10/24 03:48:46;;;;;;;7.32;2.20;;;;;;;14.18;83.20;100240.19;5126883;28;20047;-84
2022/10/24 03:51:11;;;;;;;7.80;1.73;;;;;;;14.16;83.22;100227.00;5131104;27;20012;-84
2022/10/24 03:53:37;;;;;;;8.25;2.33;;;;;;;14.20;82.11;100227.53;5133379;28;20008;-84
2022/10/24 03:56:03;;;;;;;4.20;1.70;;;;;;;14.27;82.64;100241.09;5135695;28;20057;-84
2022/10/24 03:58:28;;;;;;;7.03;1.95;;;;;;;14.23;82.23;100230.72;5124139;28;20057;-84
2022/10/24 04:00:55;;;;;;;6.47;2.15;;;;;;;14.30;82.09;100238.94;5134071;28;20048;-84
2022/10/24 04:03:21;;;;;;;5.25;2.05;;;;;;;14.35;81.92;100246.50;5116439;28;20032;-84
2022/10/24 04:05:46;;;;;;;5.95;2.15;;;;;;;14.38;81.47;100256.88;5127014;28;20023;-84
2022/10/24 04:08:11;;;;;;;6.22;1.65;;;;;;;14.38;81.78;100257.69;5132948;28;20057;-84
2022/10/24 04:10:37;;;;;;;9.40;1.80;;;;;;;14.41;81.56;100259.22;5105616;28;20107;-84
2022/10/24 04:13:02;;;;;;;8.82;2.22;;;;;;;14.37;81.75;100242.69;5124033;28;20036;-84
2022/10/24 04:15:28;;;;;;;8.57;2.00;;;;;;;14.39;82.33;100253.22;5134721;28;20041;-84
2022/10/24 04:17:53;;;;;;;8.30;1.95;;;;;;;14.40;81.42;100246.84;5113577;28;20049;-84
2022/10/24 04:20:21;;;;;;;6.63;1.88;;;;;;;14.40;82.03;100250.34;5134900;28;20032;-84
2022/10/24 04:22:46;;;;;;;7.07;2.10;;;;;;;14.37;81.73;100237.34;5109967;28;20125;-84
2022/10/24 04:25:12;;;;;;;6.68;2.17;;;;;;;14.42;81.49;100240.38;5128262;28;20134;-84
2022/10/24 04:27:39;;;;;;;8.07;1.90;;;;;;;14.38;81.87;100243.50;5123350;28;20042;-84
2022/10/24 04:30:07;;;;;;;8.45;2.00;;;;;;;14.40;80.94;100241.50;5095871;28;20024;-84
2022/10/24 04:32:32;;;;;;;8.75;2.13;;;;;;;14.41;81.28;100246.69;5121584;28;20088;-84
2022/10/24 04:34:57;;;;;;;6.18;1.83;;;;;;;14.38;81.12;100241.66;5132381;28;20047;-84
2022/10/24 04:37:22;;;;;;;9.15;2.20;;;;;;;14.39;81.04;100250.53;5126580;28;20024;-84
2022/10/24 04:39:48;;;;;;;7.13;1.70;;;;;;;14.40;80.76;100244.19;5117721;28;20025;-84
2022/10/24 04:42:13;;;;;;;6.25;1.80;;;;;;;14.37;81.19;100241.81;5130817;28;20024;-84
2022/10/24 04:44:39;;;;;;;3.45;1.73;;;;;;;14.37;80.64;100244.50;5123394;28;20058;-84
2022/10/24 04:47:04;;;;;;;8.30;1.90;;;;;;;14.37;80.80;100242.69;5106235;28;20428;-84
2022/10/24 04:49:29;;;;;;;7.57;2.00;;;;;;;14.38;81.61;100241.66;5121203;28;20414;-83
2022/10/24 04:51:54;;;;;;;8.50;2.07;;;;;;;14.34;82.02;100240.31;5112828;28;20039;-84
2022/10/24 04:54:20;;;;;;;6.67;1.73;;;;;;;14.38;80.73;100241.66;5128268;28;20319;-84
2022/10/24 04:56:45;;;;;;;6.57;2.38;;;;;;;14.41;80.65;100237.84;5126949;28;20305;-84
2022/10/24 04:59:10;;;;;;;8.45;1.90;;;;;;;14.49;81.13;100245.06;5109598;28;20474;-84
2022/10/24 05:01:36;;;;;;;9.50;1.90;;;;;;;14.47;81.28;100247.91;5128715;28;20020;-84
2022/10/24 05:04:01;;;;;;;6.60;1.73;;;;;;;14.48;80.87;100238.06;5129789;27;20015;-84
2022/10/24 05:06:26;;;;;;;7.70;2.00;;;;;;;14.54;80.51;100243.63;5126394;28;20280;-84
2022/10/24 05:08:52;;;;;;;6.78;1.80;;;;;;;14.53;80.76;100239.25;5129481;28;20028;-84
2022/10/24 05:11:17;;;;;;;9.48;2.03;;;;;;;14.56;80.41;100246.13;5104080;28;20038;-84
2022/10/24 05:13:42;;;;;;;6.65;1.58;;;;;;;14.53;80.67;100249.94;5129945;28;20035;-84
2022/10/24 05:16:07;;;;;;;6.90;1.95;;;;;;;14.51;81.37;100245.78;5124581;28;20038;-84
2022/10/24 05:18:33;;;;;;;7.25;2.00;;;;;;;14.49;82.15;100255.75;5123546;28;20091;-84
2022/10/24 05:20:59;;;;;;;6.93;1.90;;;;;;;14.49;81.43;100261.97;5121711;28;20074;-84
2022/10/24 05:23:24;;;;;;;5.25;1.75;;;;;;;14.48;81.75;100262.94;5124017;28;20028;-84
2022/10/24 05:25:49;;;;;;;8.85;2.17;;;;;;;14.52;81.62;100258.97;5123582;28;20117;-84
2022/10/24 05:28:15;;;;;;;6.85;2.30;;;;;;;14.54;81.63;100265.00;5127399;28;20036;-84
2022/10/24 05:30:43;;;;;;;7.20;2.35;;;;;;;14.55;81.41;100265.81;5127452;28;20015;-84
2022/10/24 05:33:08;;;;;;;10.20;1.95;;;;;;;14.57;81.49;100266.50;5117332;28;20028;-84
2022/10/24 05:35:34;;;;;;;12.10;2.28;;;;;;;14.56;81.62;100271.00;5130077;28;20095;-83
2022/10/24 05:37:59;;;;;;;7.05;2.55;;;;;;;14.61;81.34;100268.72;5105067;28;20058;-84
2022/10/24 05:40:24;;;;;;;13.40;2.40;;;;;;;14.66;81.14;100275.44;5111732;28;20035;-83
2022/10/24 05:42:51;;;;;;;10.38;1.92;;;;;;;14.68;81.15;100271.59;5111973;28;20024;-84
2022/10/24 05:45:17;;;;;;;12.38;2.65;;;;;;;14.68;80.99;100281.47;5141799;27;20014;-84
2022/10/24 05:47:42;;;;;;;9.70;1.95;;;;;;;14.70;81.48;100274.13;5135160;28;20114;-84
2022/10/24 05:50:08;;;;;;;5.40;2.17;;;;;;;14.70;81.30;100274.13;5133316;28;20605;-83
2022/10/24 05:52:35;;;;;;;9.80;2.70;;;;;;;14.68;81.18;100273.47;5133329;28;20035;-84
2022/10/24 05:55:04;;;;;;;6.75;1.95;;;;;;;14.70;80.54;100277.63;5128544;28;20019;-83
2022/10/24 05:57:30;;;;;;;7.95;2.10;;;;;;;14.73;80.42;100279.16;5103177;28;20051;-83
2022/10/24 05:59:56;;;;;;;8.10;2.08;;;;;;;14.69;81.07;100261.75;5113515;28;20020;-83
2022/10/24 06:02:21;;;;;;;11.95;2.63;;;;;;;14.71;80.62;100271.28;5113102;28;20031;-84
2022/10/24 06:04:47;;;;;;;10.23;2.20;;;;;;;14.69;80.00;100284.00;5101576;27;21235;-84
2022/10/24 06:07:13;;;;;;;7.72;2.00;;;;;;;14.70;80.42;100282.97;5117325;27;20035;-83
2022/10/24 06:09:40;;;;;;;12.73;2.72;;;;;;;14.68;80.41;100276.13;5105107;28;20058;-83
2022/10/24 06:12:07;;;;;;;11.27;2.20;;;;;;;14.65;80.92;100281.78;5109155;28;20026;-83
2022/10/24 06:14:33;;;;;;;9.18;2.10;;;;;;;14.63;81.14;100283.78;5119851;28;20019;-83
2022/10/24 06:16:58;;;;;;;9.60;2.55;;;;;;;14.58;80.93;100279.69;5118352;28;20382;-83
2022/10/24 06:19:23;;;;;;;9.48;1.95;;;;;;;14.62;80.90;100290.94;5125654;28;20023;-83
2022/10/24 06:21:49;;;;;;;7.65;2.22;;;;;;;14.61;81.18;100294.63;5101665;28;20036;-83
2022/10/24 06:24:14;;;;;;;10.55;2.58;;;;;;;14.65;80.54;100295.97;5109195;28;20032;-83
2022/10/24 06:26:40;;;;;;;8.90;2.33;;;;;;;14.61;81.24;100287.44;5130926;28;20031;-82
2022/10/24 06:29:05;;;;;;;13.75;2.42;;;;;;;14.57;80.86;100280.72;5115736;27;20035;-82
2022/10/24 06:31:30;;;;;;;11.10;2.53;;;;;;;14.57;81.33;100288.72;5135504;27;20061;-82
2022/10/24 06:33:55;;;;;;;8.23;2.38;;;;;;;14.57;81.16;100290.53;5125281;27;20079;-83
2022/10/24 06:36:21;;;;;;;14.10;2.50;;;;;;;14.58;81.29;100306.44;5121882;28;20073;-83
2022/10/24 06:38:47;;;;;;;13.32;2.67;;;;;;;14.54;81.79;100306.91;5147616;27;20031;-83
2022/10/24 06:41:15;;;;;;;9.95;2.40;;;;;;;14.56;81.49;100311.09;5127177;27;20032;-83
2022/10/24 06:43:41;;;;;;;13.27;2.30;;;;;;;14.52;82.03;100304.41;5140839;27;20019;-83
2022/10/24 06:46:08;;;;;;;12.05;2.55;;;;;;;14.46;82.30;100313.03;5137881;27;20156;-83
2022/10/24 06:48:35;;;;;;;8.73;2.00;;;;;;;14.49;81.72;100320.75;5134652;27;20061;-83
2022/10/24 06:51:02;;;;;;;9.52;2.35;;;;;;;14.48;81.91;100316.38;5140007;27;20043;-82
2022/10/24 06:53:28;;;;;;;8.68;2.28;;;;;;;14.47;82.12;100328.09;5135197;27;20067;-82
2022/10/24 06:55:53;;;;;;;19.50;2.90;;;;;;;14.49;81.98;100328.75;5134454;28;20054;-82
2022/10/24 06:58:18;;;;;;;9.88;2.33;;;;;;;14.53;82.05;100348.81;5136652;28;20019;-82
2022/10/24 07:00:44;;;;;;;12.05;2.40;;;;;;;14.52;82.62;100354.31;5144084;27;20043;-83
2022/10/24 07:03:15;;;;;;;14.25;2.55;;;;;;;14.54;83.58;100349.69;5127464;27;20041;-84
2022/10/24 07:05:41;;;;;;;9.70;2.22;;;;;;;14.51;84.06;100336.63;5135451;27;20723;-84
2022/10/24 07:08:06;;;;;;;9.90;2.33;;;;;;;14.49;84.49;100344.78;5110264;28;20082;-84
2022/10/24 07:10:31;;;;;;;11.07;2.30;;;;;;;14.48;84.96;100348.44;5120181;28;20051;-82
2022/10/24 07:12:57;;;;;;;11.45;2.47;;;;;;;14.42;85.38;100343.72;5085852;28;21007;-82
2022/10/24 07:15:22;;;;;;;12.25;2.50;;;;;;;14.41;85.86;100352.75;5118059;28;20099;-84
2022/10/24 07:17:48;;;;;;;10.52;2.60;;;;;;;14.39;86.03;100346.72;5112324;27;20043;-83
2022/10/24 07:20:13;;;;;;;13.00;2.83;;;;;;;14.37;86.26;100359.38;5118302;27;20107;-83
2022/10/24 07:22:40;;;;;;;9.88;2.50;;;;;;;14.34;86.72;100365.03;5130153;27;20040;-83
2022/10/24 07:25:06;;;;;;;9.60;2.35;;;;;;;14.34;87.19;100376.56;5120229;27;20039;-83
2022/10/24 07:27:32;;;;;;;10.77;2.60;;;;;;;14.37;87.57;100378.06;5103070;28;20023;-82
2022/10/24 07:29:57;;;;;;;11.68;2.50;;;;;;;14.36;87.69;100384.44;5108624;28;20367;-83
2022/10/24 07:32:22;;;;;;;11.43;2.50;;;;;;;14.38;88.01;100375.25;5115726;28;20027;-83
2022/10/24 07:34:48;;;;;;;11.70;2.53;;;;;;;14.39;87.81;100382.28;5108811;28;20043;-83
2022/10/24 07:37:15;;;;;;;9.50;2.50;;;;;;;14.40;87.49;100385.78;5116610;28;20031;-82
2022/10/24 07:39:41;;;;;;;16.67;2.78;;;;;;;14.42;86.72;100386.47;5118205;28;20449;-82
2022/10/24 07:42:06;;;;;;;11.63;2.70;;;;;;;14.45;86.57;100396.84;5107427;28;20024;-82
2022/10/24 07:44:32;;;;;;;9.88;2.42;;;;;;;14.49;85.97;100387.53;5111002;27;20028;-83
2022/10/24 07:46:57;;;;;;;9.75;2.25;;;;;;;14.51;85.70;100390.91;5104955;28;20039;-83
2022/10/24 07:49:22;;;;;;;18.33;4.05;;;;;;;14.58;85.33;100410.66;5106407;27;20052;-83
2022/10/24 07:51:48;;;;;;;10.93;2.60;;;;;;;14.63;85.42;100412.06;5117209;28;20106;-83
2022/10/24 07:54:13;;;;;;;10.63;2.40;;;;;;;14.64;85.45;100419.09;5099888;28;20031;-83
2022/10/24 07:56:38;;;;;;;9.32;2.10;;;;;;;14.70;84.78;100424.66;5116893;28;20024;-84
2022/10/24 07:59:04;;;;;;;15.40;2.92;;;;;;;14.75;84.59;100432.22;5132173;27;20042;-84
2022/10/24 08:01:29;;;;;;;9.75;2.40;;;;;;;14.75;84.86;100429.53;5129257;27;20030;-83
2022/10/24 08:03:55;;;;;;;12.43;2.80;;;;;;;14.77;84.49;100428.41;5130365;27;20102;-84
2022/10/24 08:06:24;;;;;;;9.85;2.45;;;;;;;14.73;84.54;100429.69;5135109;27;20047;-85
2022/10/24 08:08:49;;;;;;;10.40;2.38;;;;;;;14.75;85.14;100433.03;5127691;27;20063;-85
2022/10/24 08:11:18;;;;;;;10.07;2.08;;;;;;;14.72;84.56;100430.69;5133538;27;20039;-83
2022/10/24 08:13:47;;;;;;;12.07;2.30;;;;;;;14.80;85.38;100437.94;5129888;27;20422;-83
2022/10/24 08:16:15;;;;;;;9.77;2.40;;;;;;;14.80;84.54;100453.97;5136771;27;20068;-84
2022/10/24 08:18:40;;;;;;;9.80;1.92;;;;;;;14.90;83.89;100461.91;5134631;27;20039;-85
2022/10/24 08:21:09;;;;;;;11.23;2.28;;;;;;;14.97;84.09;100434.41;5119537;28;20024;-85
2022/10/24 08:23:36;;;;;;;10.35;2.53;;;;;;;15.09;84.12;100452.88;5113040;28;20059;-85
2022/10/24 08:26:06;;;;;;;10.02;2.30;;;;;;;15.17;83.37;100469.81;5129890;27;20027;-85
2022/10/24 08:28:32;;;;;;;10.00;2.58;;;;;;;15.21;83.07;100472.19;5117676;27;20030;-85
2022/10/24 08:31:00;;;;;;;9.20;2.00;;;;;;;15.25;82.09;100473.53;5133580;27;20087;-85
2022/10/24 08:33:26;;;;;;;9.93;2.40;;;;;;;15.24;82.33;100467.34;5117839;27;20502;-85
2022/10/24 08:35:55;;;;;;;10.30;2.95;;;;;;;15.29;82.31;100466.88;5131993;27;20011;-84
2022/10/24 08:38:20;;;;;;;9.52;2.33;;;;;;;15.26;82.54;100472.53;5128182;27;20079;-85
2022/10/24 08:40:50;;;;;;;13.32;2.63;;;;;;;15.23;81.53;100473.69;5096636;28;20039;-84
2022/10/24 08:43:16;;;;;;;;;;;;;;;15.26;83.01;100476.03;5112985;28;20028;-84
2022/10/24 08:46:13;;;;;;;9.65;2.22;;;;;;;15.23;83.11;100478.19;5125578;28;19911;-84
2022/10/24 08:48:55;;;;;;;9.18;2.00;;;;;;;15.26;82.26;100478.72;5078364;28;20035;-85
2022/10/24 08:51:37;;;;;;;11.82;2.38;;;;;;;15.32;82.34;100477.25;5111051;28;20032;-85
2022/10/24 08:54:05;;;;;;;8.10;2.25;;;;;;;15.36;81.37;100476.78;5108184;28;20026;-85
2022/10/24 08:56:32;;;;;;;8.57;2.03;;;;;;;15.45;80.19;100466.94;5110566;28;20043;-85
2022/10/24 08:58:59;;;;;;;11.25;2.22;;;;;;;15.54;80.71;100476.72;5113893;28;20004;-85
2022/10/24 09:01:47;;;;;;;10.85;2.30;;;;;;;15.63;79.96;100471.41;5100944;28;20030;-84
2022/10/24 09:04:17;;;;;;;9.15;2.58;;;;;;;15.77;78.21;100468.19;5118851;28;20024;-85
2022/10/24 09:06:43;;;;;;;8.27;1.88;;;;;;;15.88;77.08;100486.59;5114909;28;20028;-84
2022/10/24 09:09:32;;;;;;;8.13;1.85;;;;;;;16.01;78.18;100488.84;5126602;27;20067;-85
2022/10/24 09:12:01;;;;;;;10.57;2.33;;;;;;;16.12;76.77;100477.00;5112973;28;20052;-85
2022/10/24 09:14:29;;;;;;;8.07;2.00;;;;;;;16.14;77.19;100479.50;5104420;28;20020;-84
2022/10/24 09:17:23;;;;;;;8.95;2.00;;;;;;;16.22;77.81;100480.38;5101372;28;20093;-84
2022/10/24 09:19:52;;;;;;;8.88;2.47;;;;;;;16.23;76.05;100484.72;5121979;28;20031;-84
2022/10/24 09:22:19;;;;;;;12.57;2.97;;;;;;;16.33;75.72;100507.88;5119995;28;20034;-84
2022/10/24 09:24:53;;;;;;;12.02;2.83;;;;;;;16.36;75.38;100508.38;5125646;28;20450;-84
2022/10/24 09:27:32;;;;;;;7.70;2.60;;;;;;;16.47;75.90;100507.25;5119377;28;20035;-84
2022/10/24 09:29:58;;;;;;;12.40;2.53;;;;;;;16.52;74.54;100504.91;5102110;27;20080;-84
2022/10/24 09:32:29;;;;;;;7.95;2.35;;;;;;;16.56;74.78;100513.47;5113571;28;20055;-85
2022/10/24 09:35:01;;;;;;;13.65;2.47;;;;;;;16.70;74.18;100515.47;5101502;28;20034;-84
2022/10/24 09:37:43;;;;;;;9.50;2.65;;;;;;;16.82;74.54;100513.34;5130401;27;20034;-84
2022/10/24 09:40:13;;;;;;;9.32;2.67;;;;;;;16.91;73.72;100514.19;5125730;27;20024;-84
2022/10/24 09:42:45;;;;;;;15.23;2.70;;;;;;;16.98;72.96;100516.03;5127408;27;20039;-84
2022/10/24 09:45:38;;;;;;;12.57;3.42;;;;;;;17.10;73.42;100519.25;5128882;27;20046;-85
2022/10/24 09:48:29;;;;;;;9.05;2.30;;;;;;;17.22;74.27;100537.66;5138023;27;20049;-85
2022/10/24 09:50:55;;;;;;;9.73;2.17;;;;;;;17.31;73.26;100518.69;5135756;27;20043;-85
2022/10/24 09:53:26;;;;;;;10.20;2.45;;;;;;;17.40;71.78;100535.63;5117311;28;20036;-85
2022/10/24 09:55:55;;;;;;;9.35;2.58;;;;;;;17.50;70.96;100530.94;5137846;27;20083;-85
2022/10/24 09:58:28;;;;;;;10.40;2.88;;;;;;;17.47;69.94;100525.91;5096377;28;20055;-84
2022/10/24 10:01:17;;;;;;;14.27;2.30;;;;;;;17.54;71.76;100548.38;5110612;27;20020;-84
2022/10/24 10:03:42;;;;;;;10.27;2.50;;;;;;;17.56;70.62;100534.78;5108252;27;20044;-83
2022/10/24 10:06:17;;;;;;;14.20;2.67;;;;;;;17.56;70.97;100532.91;5120418;28;20053;-83
2022/10/24 10:08:50;;;;;;;10.65;2.28;;;;;;;17.54;69.94;100542.16;5119996;28;20104;-83
2022/10/24 10:11:25;;;;;;;12.45;2.65;;;;;;;17.46;71.06;100555.59;5116738;28;20099;-84
2022/10/24 10:13:53;;;;;;;11.55;2.30;;;;;;;17.34;70.35;100552.44;5110840;28;20051;-83
2022/10/24 10:16:29;;;;;;;9.88;2.72;;;;;;;17.21;70.95;100552.94;5121165;28;20043;-84
2022/10/24 10:19:02;;;;;;;13.10;3.08;;;;;;;17.22;69.75;100567.19;5115390;28;20079;-83
2022/10/24 10:21:54;;;;;;;11.93;2.50;;;;;;;17.32;71.19;100551.75;5118202;28;20032;-83
2022/10/24 10:24:39;;;;;;;15.10;3.30;;;;;;;17.41;69.85;100561.47;5105133;28;20024;-84
2022/10/24 10:27:39;;;;;;;11.80;2.78;;;;;;;17.53;70.56;100573.53;5119195;28;20023;-84
2022/10/24 10:30:11;;;;;;;9.95;2.88;;;;;;;17.65;70.17;100579.41;5097370;28;20040;-85
2022/10/24 10:33:07;;;;;;;10.85;2.47;;;;;;;17.72;70.25;100569.66;5108910;28;20378;-84
2022/10/24 10:36:06;;;;;;;8.82;2.25;;;;;;;17.71;69.14;100583.25;5123269;28;20030;-84
2022/10/24 10:38:43;;;;;;;9.07;2.38;;;;;;;17.64;69.77;100585.78;5120379;28;20016;-83
2022/10/24 10:41:33;;;;;;;12.02;2.85;;;;;;;17.58;68.72;100591.84;5113085;28;20058;-84
2022/10/24 10:44:28;;;;;;;10.73;2.22;;;;;;;17.43;68.97;100604.25;5118102;28;20039;-84
2022/10/24 10:47:20;;;;;;;9.00;2.28;;;;;;;17.31;73.27;100609.13;5118515;28;20043;-86
2022/10/24 10:49:53;;;;;;;9.25;2.70;;;;;;;17.02;73.27;100619.34;5112671;28;20039;-85
2022/10/24 10:52:27;;;;;;;9.52;2.50;;;;;;;16.83;76.06;100616.91;5126528;28;20046;-85
2022/10/24 10:55:12;;;;;;;6.75;2.10;;;;;;;16.68;76.68;100611.34;5121265;28;20109;-85
2022/10/24 10:57:48;;;;;;;8.40;2.10;;;;;;;16.46;78.51;100615.47;5099636;28;20044;-85
2022/10/24 11:00:20;;;;;;;6.43;1.92;;;;;;;16.26;79.89;100629.09;5125863;28;20042;-86
2022/10/24 11:02:58;;;;;;;9.13;2.00;;;;;;;16.09;80.88;100624.69;5107009;28;20038;-85
2022/10/24 11:05:43;;;;;;;11.05;2.17;;;;;;;16.04;81.98;100622.47;5110063;28;20416;-85
2022/10/24 11:08:53;;;;;;;12.88;2.55;;;;;;;16.09;81.46;100622.81;5113095;28;20058;-85
2022/10/24 11:11:27;;;;;;;13.50;2.72;;;;;;;16.07;83.02;100626.66;5059816;28;20050;-84
2022/10/24 11:14:25;;;;;;;8.93;2.42;;;;;;;16.20;81.91;100621.69;5117868;28;20047;-84
2022/10/24 11:16:53;;;;;;;6.85;2.05;;;;;;;16.30;82.83;100623.44;5065979;28;20070;-84
2022/10/24 11:19:39;;;;;;;10.48;2.10;;;;;;;16.43;84.33;100621.97;5116954;27;20089;-84
2022/10/24 11:22:14;;;;;;;11.85;2.50;;;;;;;16.49;82.41;100616.97;5092298;28;20032;-84
2022/10/24 11:24:49;;;;;;;9.10;2.67;;;;;;;16.63;82.19;100635.97;5111287;28;20032;-85
2022/10/24 11:27:21;;;;;;;13.02;2.30;;;;;;;16.69;80.97;100626.44;5124773;27;20035;-84
2022/10/24 11:30:10;;;;;;;12.82;2.60;;;;;;;16.75;80.64;100628.47;5132224;27;20160;-83
2022/10/24 11:32:54;;;;;;;11.93;2.67;;;;;;;16.83;80.05;100633.00;5131655;27;20054;-83
2022/10/24 11:35:28;;;;;;;10.68;2.30;;;;;;;16.89;78.91;100627.03;5137457;27;20031;-83
2022/10/24 11:38:17;;;;;;;8.88;2.53;;;;;;;16.92;78.06;100626.72;5137364;27;20019;-83
2022/10/24 11:40:44;;;;;;;;;;;;;;;17.00;78.92;100634.78;5130336;27;20035;-83
2022/10/24 11:43:24;;;;;;;9.65;2.40;;;;;;;16.96;77.52;100635.25;5096510;28;19912;-84